sensor_id;sensor_type;location;lat;lon;timestamp;pressure;altitude;pressure_sealevel;temperature;humidity
84710;BME280;75589;42.648;23.274;2024-01-27T00:02:20;93930.03;;;1.98;55.90
84710;BME280;75589;42.648;23.274;2024-01-27T00:04:45;93923.19;;;2.10;55.60
84710;BME280;75589;42.648;23.274;2024-01-27T00:07:10;93924.72;;;2.00;54.83
84710;BME280;75589;42.648;23.274;2024-01-27T00:09:36;93941.53;;;2.30;53.76
84710;BME280;75589;42.648;23.274;2024-01-27T00:12:02;93896.88;;;2.33;52.22
84710;BME280;75589;42.648;23.274;2024-01-27T00:14:27;93918.88;;;2.45;51.25
84710;BME280;75589;42.648;23.274;2024-01-27T00:16:53;93922.84;;;2.65;49.69
84710;BME280;75589;42.648;23.274;2024-01-27T00:19:18;93895.28;;;2.67;49.35
84710;BME280;75589;42.648;23.274;2024-01-27T00:21:44;93898.50;;;2.74;49.55
84710;BME280;75589;42.648;23.274;2024-01-27T00:24:09;93892.50;;;2.68;49.07
84710;BME280;75589;42.648;23.274;2024-01-27T00:26:35;93898.50;;;2.74;49.37
84710;BME280;75589;42.648;23.274;2024-01-27T00:29:00;93884.47;;;2.76;48.96
84710;BME280;75589;42.648;23.274;2024-01-27T00:31:26;93902.03;;;2.73;49.57
84710;BME280;75589;42.648;23.274;2024-01-27T00:33:52;93883.94;;;2.63;50.67
84710;BME280;75589;42.648;23.274;2024-01-27T00:36:17;93906.13;;;2.85;51.56
84710;BME280;75589;42.648;23.274;2024-01-27T00:38:44;93913.69;;;2.92;50.35
84710;BME280;75589;42.648;23.274;2024-01-27T00:41:09;93919.78;;;2.91;51.18
84710;BME280;75589;42.648;23.274;2024-01-27T00:43:40;93909.03;;;2.89;49.99
84710;BME280;75589;42.648;23.274;2024-01-27T00:46:06;93903.91;;;2.89;49.31
84710;BME280;75589;42.648;23.274;2024-01-27T00:48:31;93892.53;;;2.96;46.54
84710;BME280;75589;42.648;23.274;2024-01-27T00:50:57;93922.00;;;3.10;46.14
84710;BME280;75589;42.648;23.274;2024-01-27T00:53:23;93909.59;;;3.19;47.50
84710;BME280;75589;42.648;23.274;2024-01-27T00:55:48;93901.72;;;3.09;46.63
84710;BME280;75589;42.648;23.274;2024-01-27T00:58:15;93891.75;;;3.07;46.15
84710;BME280;75589;42.648;23.274;2024-01-27T01:00:41;93896.44;;;3.27;43.49
84710;BME280;75589;42.648;23.274;2024-01-27T01:03:06;93883.22;;;3.18;45.13
84710;BME280;75589;42.648;23.274;2024-01-27T01:05:32;93902.78;;;3.25;43.09
84710;BME280;75589;42.648;23.274;2024-01-27T01:07:57;93891.22;;;3.34;42.75
84710;BME280;75589;42.648;23.274;2024-01-27T01:10:24;93890.44;;;3.33;42.97
84710;BME280;75589;42.648;23.274;2024-01-27T01:12:50;93866.97;;;3.25;43.79
84710;BME280;75589;42.648;23.274;2024-01-27T01:15:16;93879.81;;;3.13;44.16
84710;BME280;75589;42.648;23.274;2024-01-27T01:17:41;93901.13;;;3.30;43.94
84710;BME280;75589;42.648;23.274;2024-01-27T01:20:07;93886.44;;;3.26;43.33
84710;BME280;75589;42.648;23.274;2024-01-27T01:22:33;93901.44;;;3.34;44.54
84710;BME280;75589;42.648;23.274;2024-01-27T01:24:58;93907.03;;;3.47;44.25
84710;BME280;75589;42.648;23.274;2024-01-27T01:27:25;93886.72;;;3.41;42.37
84710;BME280;75589;42.648;23.274;2024-01-27T01:29:50;93882.56;;;3.68;41.86
84710;BME280;75589;42.648;23.274;2024-01-27T01:32:16;93897.31;;;3.61;42.75
84710;BME280;75589;42.648;23.274;2024-01-27T01:34:41;93878.19;;;3.52;41.20
84710;BME280;75589;42.648;23.274;2024-01-27T01:37:06;93888.22;;;3.70;41.13
84710;BME280;75589;42.648;23.274;2024-01-27T01:39:32;93876.44;;;3.69;40.57
84710;BME280;75589;42.648;23.274;2024-01-27T01:41:57;93868.59;;;3.59;41.34
84710;BME280;75589;42.648;23.274;2024-01-27T01:44:29;93875.81;;;3.62;42.00
84710;BME280;75589;42.648;23.274;2024-01-27T01:46:55;93875.28;;;3.76;42.36
84710;BME280;75589;42.648;23.274;2024-01-27T01:49:21;93859.13;;;3.76;41.95
84710;BME280;75589;42.648;23.274;2024-01-27T01:51:46;93836.72;;;3.66;40.32
84710;BME280;75589;42.648;23.274;2024-01-27T01:54:12;93842.38;;;3.85;38.46
84710;BME280;75589;42.648;23.274;2024-01-27T01:56:37;93871.19;;;3.92;41.48
84710;BME280;75589;42.648;23.274;2024-01-27T01:59:03;93866.13;;;3.97;40.04
84710;BME280;75589;42.648;23.274;2024-01-27T02:01:28;93858.34;;;4.09;36.66
84710;BME280;75589;42.648;23.274;2024-01-27T02:03:54;93863.63;;;4.19;35.53
84710;BME280;75589;42.648;23.274;2024-01-27T02:06:20;93869.66;;;4.29;36.89
84710;BME280;75589;42.648;23.274;2024-01-27T02:08:46;93867.81;;;4.25;37.20
84710;BME280;75589;42.648;23.274;2024-01-27T02:11:11;93835.34;;;4.14;36.98
84710;BME280;75589;42.648;23.274;2024-01-27T02:13:37;93841.25;;;4.31;36.20
84710;BME280;75589;42.648;23.274;2024-01-27T02:16:02;93829.13;;;4.26;36.11
84710;BME280;75589;42.648;23.274;2024-01-27T02:18:28;93817.41;;;4.14;37.34
84710;BME280;75589;42.648;23.274;2024-01-27T02:20:53;93842.22;;;4.08;38.76
84710;BME280;75589;42.648;23.274;2024-01-27T02:23:19;93849.72;;;4.15;40.08
84710;BME280;75589;42.648;23.274;2024-01-27T02:25:44;93843.09;;;4.35;38.40
84710;BME280;75589;42.648;23.274;2024-01-27T02:28:10;93831.06;;;4.36;37.84
84710;BME280;75589;42.648;23.274;2024-01-27T02:30:35;93818.19;;;4.31;38.08
84710;BME280;75589;42.648;23.274;2024-01-27T02:33:01;93825.50;;;4.22;39.55
84710;BME280;75589;42.648;23.274;2024-01-27T02:35:26;93821.28;;;4.33;37.23
84710;BME280;75589;42.648;23.274;2024-01-27T02:37:52;93808.94;;;4.30;36.75
84710;BME280;75589;42.648;23.274;2024-01-27T02:40:17;93821.00;;;4.51;34.44
84710;BME280;75589;42.648;23.274;2024-01-27T02:42:43;93820.53;;;4.54;35.64
84710;BME280;75589;42.648;23.274;2024-01-27T02:45:10;93826.00;;;4.41;35.59
84710;BME280;75589;42.648;23.274;2024-01-27T02:47:36;93809.66;;;4.47;33.99
84710;BME280;75589;42.648;23.274;2024-01-27T02:50:01;93832.22;;;4.67;34.58
84710;BME280;75589;42.648;23.274;2024-01-27T02:52:27;93799.28;;;4.59;36.67
84710;BME280;75589;42.648;23.274;2024-01-27T02:54:53;93827.50;;;4.59;38.21
84710;BME280;75589;42.648;23.274;2024-01-27T02:57:19;93826.53;;;4.43;40.85
84710;BME280;75589;42.648;23.274;2024-01-27T02:59:48;93801.75;;;4.49;43.38
84710;BME280;75589;42.648;23.274;2024-01-27T03:02:15;93824.81;;;4.49;46.55
84710;BME280;75589;42.648;23.274;2024-01-27T03:04:40;93794.63;;;4.34;48.76
84710;BME280;75589;42.648;23.274;2024-01-27T03:07:06;93811.75;;;4.72;50.67
84710;BME280;75589;42.648;23.274;2024-01-27T03:09:31;93822.25;;;4.70;51.99
84710;BME280;75589;42.648;23.274;2024-01-27T03:11:57;93857.16;;;4.71;52.05
84710;BME280;75589;42.648;23.274;2024-01-27T03:14:24;93837.03;;;4.41;52.19
84710;BME280;75589;42.648;23.274;2024-01-27T03:16:49;93838.19;;;4.34;54.80
84710;BME280;75589;42.648;23.274;2024-01-27T03:19:15;93846.72;;;4.18;55.97
84710;BME280;75589;42.648;23.274;2024-01-27T03:21:41;93864.56;;;4.13;55.99
84710;BME280;75589;42.648;23.274;2024-01-27T03:24:06;93870.84;;;3.89;56.12
84710;BME280;75589;42.648;23.274;2024-01-27T03:26:32;93854.19;;;3.69;60.76
84710;BME280;75589;42.648;23.274;2024-01-27T03:28:57;93844.00;;;3.58;62.29
84710;BME280;75589;42.648;23.274;2024-01-27T03:31:23;93848.41;;;3.46;63.85
84710;BME280;75589;42.648;23.274;2024-01-27T03:33:49;93840.72;;;3.46;66.41
84710;BME280;75589;42.648;23.274;2024-01-27T03:36:15;93855.75;;;3.42;66.71
84710;BME280;75589;42.648;23.274;2024-01-27T03:38:40;93840.31;;;3.37;68.90
84710;BME280;75589;42.648;23.274;2024-01-27T03:41:06;93843.22;;;3.41;69.61
84710;BME280;75589;42.648;23.274;2024-01-27T03:43:33;93827.44;;;3.32;70.14
84710;BME280;75589;42.648;23.274;2024-01-27T03:46:00;93816.03;;;3.23;71.23
84710;BME280;75589;42.648;23.274;2024-01-27T03:48:25;93804.81;;;3.41;71.17
84710;BME280;75589;42.648;23.274;2024-01-27T03:50:51;93791.84;;;3.47;72.30
84710;BME280;75589;42.648;23.274;2024-01-27T03:53:17;93779.53;;;3.61;71.24
84710;BME280;75589;42.648;23.274;2024-01-27T03:55:42;93811.03;;;3.95;69.30
84710;BME280;75589;42.648;23.274;2024-01-27T03:58:07;93803.56;;;3.60;69.98
84710;BME280;75589;42.648;23.274;2024-01-27T04:00:33;93810.56;;;3.48;69.82
84710;BME280;75589;42.648;23.274;2024-01-27T04:02:59;93785.50;;;3.33;70.69
84710;BME280;75589;42.648;23.274;2024-01-27T04:05:25;93793.00;;;3.40;71.25
84710;BME280;75589;42.648;23.274;2024-01-27T04:07:51;93811.41;;;3.53;72.67
84710;BME280;75589;42.648;23.274;2024-01-27T04:10:17;93797.91;;;3.41;72.24
84710;BME280;75589;42.648;23.274;2024-01-27T04:12:43;93801.88;;;3.65;73.22
84710;BME280;75589;42.648;23.274;2024-01-27T04:15:10;93778.13;;;3.70;70.76
84710;BME280;75589;42.648;23.274;2024-01-27T04:17:37;93803.03;;;3.74;70.66
84710;BME280;75589;42.648;23.274;2024-01-27T04:20:02;93788.44;;;3.75;71.43
84710;BME280;75589;42.648;23.274;2024-01-27T04:22:28;93782.84;;;3.78;70.71
84710;BME280;75589;42.648;23.274;2024-01-27T04:24:53;93794.25;;;3.87;70.43
84710;BME280;75589;42.648;23.274;2024-01-27T04:27:19;93800.78;;;3.95;70.84
84710;BME280;75589;42.648;23.274;2024-01-27T04:29:45;93780.06;;;3.79;70.35
84710;BME280;75589;42.648;23.274;2024-01-27T04:32:11;93799.22;;;3.94;71.06
84710;BME280;75589;42.648;23.274;2024-01-27T04:34:38;93819.63;;;4.05;69.41
84710;BME280;75589;42.648;23.274;2024-01-27T04:37:04;93801.69;;;3.89;70.30
84710;BME280;75589;42.648;23.274;2024-01-27T04:39:29;93812.72;;;3.89;70.23
84710;BME280;75589;42.648;23.274;2024-01-27T04:41:55;93819.41;;;3.90;71.09
84710;BME280;75589;42.648;23.274;2024-01-27T04:44:20;93821.25;;;3.95;71.40
84710;BME280;75589;42.648;23.274;2024-01-27T04:46:46;93806.28;;;3.87;72.61
84710;BME280;75589;42.648;23.274;2024-01-27T04:49:11;93808.00;;;3.98;71.98
84710;BME280;75589;42.648;23.274;2024-01-27T04:51:37;93807.34;;;4.07;72.76
84710;BME280;75589;42.648;23.274;2024-01-27T04:54:02;93785.41;;;3.95;72.71
84710;BME280;75589;42.648;23.274;2024-01-27T04:56:28;93809.19;;;4.12;71.83
84710;BME280;75589;42.648;23.274;2024-01-27T04:58:53;93804.19;;;4.00;72.78
84710;BME280;75589;42.648;23.274;2024-01-27T05:01:18;93810.78;;;3.96;73.81
84710;BME280;75589;42.648;23.274;2024-01-27T05:03:44;93804.94;;;4.01;72.15
84710;BME280;75589;42.648;23.274;2024-01-27T05:06:10;93808.81;;;4.03;73.37
84710;BME280;75589;42.648;23.274;2024-01-27T05:08:35;93824.59;;;3.95;73.43
84710;BME280;75589;42.648;23.274;2024-01-27T05:11:01;93819.09;;;3.87;73.94
84710;BME280;75589;42.648;23.274;2024-01-27T05:13:27;93833.53;;;3.93;74.61
84710;BME280;75589;42.648;23.274;2024-01-27T05:15:52;93822.72;;;3.91;73.88
84710;BME280;75589;42.648;23.274;2024-01-27T05:18:18;93826.78;;;3.87;74.22
84710;BME280;75589;42.648;23.274;2024-01-27T05:20:43;93835.38;;;3.97;76.40
84710;BME280;75589;42.648;23.274;2024-01-27T05:23:09;93798.59;;;3.70;76.80
84710;BME280;75589;42.648;23.274;2024-01-27T05:25:34;93826.69;;;3.98;76.78
84710;BME280;75589;42.648;23.274;2024-01-27T05:28:00;93821.16;;;4.23;73.87
84710;BME280;75589;42.648;23.274;2024-01-27T05:30:25;93805.50;;;4.03;76.87
84710;BME280;75589;42.648;23.274;2024-01-27T05:32:50;93805.25;;;4.04;76.01
84710;BME280;75589;42.648;23.274;2024-01-27T05:35:16;93824.78;;;4.27;74.69
84710;BME280;75589;42.648;23.274;2024-01-27T05:37:42;93824.34;;;4.13;76.37
84710;BME280;75589;42.648;23.274;2024-01-27T05:40:08;93834.84;;;3.95;76.43
84710;BME280;75589;42.648;23.274;2024-01-27T05:42:33;93849.72;;;4.15;74.46
84710;BME280;75589;42.648;23.274;2024-01-27T05:44:59;93819.47;;;3.95;75.82
84710;BME280;75589;42.648;23.274;2024-01-27T05:47:24;93857.25;;;3.88;76.27
84710;BME280;75589;42.648;23.274;2024-01-27T05:49:50;93851.06;;;4.17;73.30
84710;BME280;75589;42.648;23.274;2024-01-27T05:52:15;93852.69;;;4.23;73.96
84710;BME280;75589;42.648;23.274;2024-01-27T05:54:41;93841.00;;;4.32;73.41
84710;BME280;75589;42.648;23.274;2024-01-27T05:57:07;93861.56;;;4.37;72.20
84710;BME280;75589;42.648;23.274;2024-01-27T05:59:33;93857.31;;;4.26;72.85
84710;BME280;75589;42.648;23.274;2024-01-27T06:01:58;93859.59;;;4.23;72.32
84710;BME280;75589;42.648;23.274;2024-01-27T06:04:24;93844.78;;;4.08;72.91
84710;BME280;75589;42.648;23.274;2024-01-27T06:06:49;93855.84;;;4.14;74.83
84710;BME280;75589;42.648;23.274;2024-01-27T06:09:15;93851.84;;;4.18;73.87
84710;BME280;75589;42.648;23.274;2024-01-27T06:11:40;93860.06;;;4.20;74.47
84710;BME280;75589;42.648;23.274;2024-01-27T06:14:06;93873.72;;;4.25;73.79
84710;BME280;75589;42.648;23.274;2024-01-27T06:16:32;93879.16;;;4.12;74.68
84710;BME280;75589;42.648;23.274;2024-01-27T06:18:58;93859.84;;;4.05;75.44
84710;BME280;75589;42.648;23.274;2024-01-27T06:21:25;93871.16;;;4.09;74.45
84710;BME280;75589;42.648;23.274;2024-01-27T06:23:50;93892.38;;;4.21;72.99
84710;BME280;75589;42.648;23.274;2024-01-27T06:26:16;93880.72;;;4.13;74.23
84710;BME280;75589;42.648;23.274;2024-01-27T06:28:41;93881.34;;;4.04;73.15
84710;BME280;75589;42.648;23.274;2024-01-27T06:31:07;93898.28;;;4.05;71.99
84710;BME280;75589;42.648;23.274;2024-01-27T06:33:34;93906.94;;;4.04;73.18
84710;BME280;75589;42.648;23.274;2024-01-27T06:36:00;93923.28;;;3.98;74.03
84710;BME280;75589;42.648;23.274;2024-01-27T06:38:26;93934.69;;;4.07;72.16
84710;BME280;75589;42.648;23.274;2024-01-27T06:40:52;93910.22;;;3.83;71.74
84710;BME280;75589;42.648;23.274;2024-01-27T06:43:18;93925.25;;;3.96;71.58
84710;BME280;75589;42.648;23.274;2024-01-27T06:45:43;93920.78;;;4.03;70.08
84710;BME280;75589;42.648;23.274;2024-01-27T06:48:09;93895.72;;;4.05;70.62
84710;BME280;75589;42.648;23.274;2024-01-27T06:50:35;93924.88;;;4.04;69.57
84710;BME280;75589;42.648;23.274;2024-01-27T06:53:01;93915.88;;;4.01;68.47
84710;BME280;75589;42.648;23.274;2024-01-27T06:55:26;93947.94;;;4.04;69.76
84710;BME280;75589;42.648;23.274;2024-01-27T06:57:52;93936.75;;;3.93;68.49
84710;BME280;75589;42.648;23.274;2024-01-27T07:00:18;93913.78;;;3.82;68.76
84710;BME280;75589;42.648;23.274;2024-01-27T07:02:45;93944.06;;;3.85;69.65
84710;BME280;75589;42.648;23.274;2024-01-27T07:05:10;93940.09;;;3.94;69.73
84710;BME280;75589;42.648;23.274;2024-01-27T07:07:37;93907.28;;;4.07;69.59
84710;BME280;75589;42.648;23.274;2024-01-27T07:10:03;93930.94;;;4.14;67.56
84710;BME280;75589;42.648;23.274;2024-01-27T07:12:29;93942.59;;;4.05;67.73
84710;BME280;75589;42.648;23.274;2024-01-27T07:14:54;93932.50;;;3.99;68.15
84710;BME280;75589;42.648;23.274;2024-01-27T07:17:20;93906.56;;;3.78;68.16
84710;BME280;75589;42.648;23.274;2024-01-27T07:19:46;93929.94;;;3.82;67.65
84710;BME280;75589;42.648;23.274;2024-01-27T07:22:11;93951.22;;;3.83;67.92
84710;BME280;75589;42.648;23.274;2024-01-27T07:24:37;93956.78;;;3.79;67.26
84710;BME280;75589;42.648;23.274;2024-01-27T07:27:03;93975.94;;;3.77;66.91
84710;BME280;75589;42.648;23.274;2024-01-27T07:29:29;93947.53;;;3.50;68.43
84710;BME280;75589;42.648;23.274;2024-01-27T07:31:55;93979.38;;;3.54;67.13
84710;BME280;75589;42.648;23.274;2024-01-27T07:34:21;93979.16;;;3.56;65.66
84710;BME280;75589;42.648;23.274;2024-01-27T07:36:46;93985.81;;;3.29;68.78
84710;BME280;75589;42.648;23.274;2024-01-27T07:39:13;94012.03;;;3.24;66.05
84710;BME280;75589;42.648;23.274;2024-01-27T07:41:39;94032.75;;;3.23;67.11
84710;BME280;75589;42.648;23.274;2024-01-27T07:51:38;94082.59;;;3.20;68.47
84710;BME280;75589;42.648;23.274;2024-01-27T07:54:04;94050.69;;;2.99;69.07
84710;BME280;75589;42.648;23.274;2024-01-27T08:04:16;94073.38;;;3.07;68.06
84710;BME280;75589;42.648;23.274;2024-01-27T08:06:49;94077.94;;;3.05;66.81
84710;BME280;75589;42.648;23.274;2024-01-27T08:17:01;94048.69;;;3.13;64.25
84710;BME280;75589;42.648;23.274;2024-01-27T08:19:28;94097.34;;;3.53;64.90
84710;BME280;75589;42.648;23.274;2024-01-27T08:21:54;94041.97;;;3.35;61.81
84710;BME280;75589;42.648;23.274;2024-01-27T08:24:19;94043.06;;;3.51;62.41
84710;BME280;75589;42.648;23.274;2024-01-27T08:26:45;94053.25;;;3.62;61.58
84710;BME280;75589;42.648;23.274;2024-01-27T08:29:13;94053.25;;;3.62;61.29
84710;BME280;75589;42.648;23.274;2024-01-27T08:31:39;94047.63;;;3.49;59.96
84710;BME280;75589;42.648;23.274;2024-01-27T08:34:24;94035.94;;;3.81;60.10
84710;BME280;75589;42.648;23.274;2024-01-27T08:36:50;94013.06;;;3.63;61.47
84710;BME280;75589;42.648;23.274;2024-01-27T08:39:15;94049.09;;;3.73;62.30
84710;BME280;75589;42.648;23.274;2024-01-27T08:41:41;94049.56;;;3.70;61.41
84710;BME280;75589;42.648;23.274;2024-01-27T08:44:06;94043.69;;;3.69;61.48
84710;BME280;75589;42.648;23.274;2024-01-27T08:46:32;94026.59;;;3.75;63.10
84710;BME280;75589;42.648;23.274;2024-01-27T08:48:57;94038.69;;;3.91;61.16
84710;BME280;75589;42.648;23.274;2024-01-27T08:51:23;94041.13;;;3.98;61.26
84710;BME280;75589;42.648;23.274;2024-01-27T08:53:48;94046.94;;;4.38;60.13
84710;BME280;75589;42.648;23.274;2024-01-27T08:56:15;94038.84;;;4.29;59.42
84710;BME280;75589;42.648;23.274;2024-01-27T08:58:42;94055.66;;;4.70;59.28
84710;BME280;75589;42.648;23.274;2024-01-27T09:01:10;94016.97;;;4.72;57.80
84710;BME280;75589;42.648;23.274;2024-01-27T09:03:42;94037.56;;;5.15;54.97
